sensor_id;sensor_type;location;lat;lon;timestamp;P1;durP1;ratioP1;P2;durP2;ratioP2
43620;SDS011;29213;50.770;7.298;2022-09-09T00:02:25;2.33;;;0.80;;
43620;SDS011;29213;50.770;7.298;2022-09-09T00:04:59;1.48;;;0.63;;
43620;SDS011;29213;50.770;7.298;2022-09-09T00:07:47;2.40;;;0.80;;
43620;SDS011;29213;50.770;7.298;2022-09-09T00:10:29;3.88;;;0.80;;
43620;SDS011;29213;50.770;7.298;2022-09-09T00:21:11;2.22;;;0.60;;
43620;SDS011;29213;50.770;7.298;2022-09-09T00:31:56;2.30;;;1.00;;
43620;SDS011;29213;50.770;7.298;2022-09-09T00:34:29;4.05;;;0.80;;
43620;SDS011;29213;50.770;7.298;2022-09-09T00:36:59;2.42;;;0.80;;
43620;SDS011;29213;50.770;7.298;2022-09-09T00:39:27;2.65;;;0.93;;
43620;SDS011;29213;50.770;7.298;2022-09-09T00:42:11;2.00;;;0.90;;
43620;SDS011;29213;50.770;7.298;2022-09-09T00:47:50;2.72;;;0.85;;
43620;SDS011;29213;50.770;7.298;2022-09-09T01:00:42;1.80;;;0.80;;
43620;SDS011;29213;50.770;7.298;2022-09-09T01:03:18;1.90;;;0.80;;
43620;SDS011;29213;50.770;7.298;2022-09-09T01:14:02;1.85;;;0.85;;
43620;SDS011;29213;50.770;7.298;2022-09-09T01:16:36;3.45;;;1.00;;
43620;SDS011;29213;50.770;7.298;2022-09-09T01:19:03;3.17;;;0.95;;
43620;SDS011;29213;50.770;7.298;2022-09-09T01:21:43;5.03;;;1.00;;
43620;SDS011;29213;50.770;7.298;2022-09-09T01:26:59;2.72;;;0.98;;
43620;SDS011;29213;50.770;7.298;2022-09-09T01:29:27;3.10;;;0.73;;
43620;SDS011;29213;50.770;7.298;2022-09-09T01:31:57;3.07;;;0.90;;
43620;SDS011;29213;50.770;7.298;2022-09-09T01:34:25;2.90;;;0.90;;
43620;SDS011;29213;50.770;7.298;2022-09-09T01:37:02;2.45;;;0.77;;
43620;SDS011;29213;50.770;7.298;2022-09-09T01:39:32;2.45;;;0.90;;
43620;SDS011;29213;50.770;7.298;2022-09-09T01:41:59;2.63;;;0.77;;
43620;SDS011;29213;50.770;7.298;2022-09-09T01:44:26;2.75;;;0.80;;
43620;SDS011;29213;50.770;7.298;2022-09-09T01:46:56;2.28;;;0.90;;
43620;SDS011;29213;50.770;7.298;2022-09-09T01:49:21;1.60;;;0.88;;
43620;SDS011;29213;50.770;7.298;2022-09-09T01:51:50;1.88;;;0.80;;
43620;SDS011;29213;50.770;7.298;2022-09-09T01:54:23;1.88;;;0.80;;
43620;SDS011;29213;50.770;7.298;2022-09-09T01:57:10;2.38;;;0.80;;
43620;SDS011;29213;50.770;7.298;2022-09-09T02:02:18;2.33;;;0.88;;
43620;SDS011;29213;50.770;7.298;2022-09-09T02:05:40;2.85;;;0.95;;
43620;SDS011;29213;50.770;7.298;2022-09-09T02:07:55;3.10;;;0.77;;
43620;SDS011;29213;50.770;7.298;2022-09-09T02:13:09;2.17;;;0.93;;
43620;SDS011;29213;50.770;7.298;2022-09-09T02:15:43;2.33;;;0.90;;
43620;SDS011;29213;50.770;7.298;2022-09-09T02:21:37;1.92;;;0.85;;
43620;SDS011;29213;50.770;7.298;2022-09-09T02:24:06;1.60;;;0.70;;
43620;SDS011;29213;50.770;7.298;2022-09-09T02:26:37;3.08;;;1.10;;
43620;SDS011;29213;50.770;7.298;2022-09-09T02:29:08;2.70;;;1.10;;
43620;SDS011;29213;50.770;7.298;2022-09-09T02:31:37;2.00;;;0.82;;
43620;SDS011;29213;50.770;7.298;2022-09-09T02:34:06;3.58;;;1.02;;
43620;SDS011;29213;50.770;7.298;2022-09-09T02:36:36;3.92;;;0.90;;
43620;SDS011;29213;50.770;7.298;2022-09-09T02:39:06;3.22;;;1.02;;
43620;SDS011;29213;50.770;7.298;2022-09-09T02:41:34;2.53;;;0.80;;
43620;SDS011;29213;50.770;7.298;2022-09-09T02:44:02;2.30;;;0.90;;
43620;SDS011;29213;50.770;7.298;2022-09-09T02:51:50;2.72;;;0.90;;
43620;SDS011;29213;50.770;7.298;2022-09-09T02:54:28;2.72;;;0.90;;
43620;SDS011;29213;50.770;7.298;2022-09-09T02:57:01;2.45;;;0.85;;
43620;SDS011;29213;50.770;7.298;2022-09-09T02:59:33;4.70;;;1.30;;
43620;SDS011;29213;50.770;7.298;2022-09-09T03:01:58;2.70;;;1.00;;
43620;SDS011;29213;50.770;7.298;2022-09-09T03:04:24;4.47;;;1.08;;
43620;SDS011;29213;50.770;7.298;2022-09-09T03:06:50;2.13;;;0.77;;
43620;SDS011;29213;50.770;7.298;2022-09-09T03:09:15;2.90;;;1.00;;
43620;SDS011;29213;50.770;7.298;2022-09-09T03:11:40;3.30;;;1.00;;
43620;SDS011;29213;50.770;7.298;2022-09-09T03:14:06;3.15;;;1.00;;
43620;SDS011;29213;50.770;7.298;2022-09-09T03:16:33;2.92;;;0.85;;
43620;SDS011;29213;50.770;7.298;2022-09-09T03:19:00;2.03;;;0.80;;
43620;SDS011;29213;50.770;7.298;2022-09-09T03:21:25;2.88;;;0.85;;
43620;SDS011;29213;50.770;7.298;2022-09-09T03:23:51;3.10;;;0.98;;
43620;SDS011;29213;50.770;7.298;2022-09-09T03:26:16;2.17;;;0.80;;
43620;SDS011;29213;50.770;7.298;2022-09-09T03:28:42;3.35;;;1.10;;
43620;SDS011;29213;50.770;7.298;2022-09-09T03:31:08;2.35;;;0.70;;
43620;SDS011;29213;50.770;7.298;2022-09-09T03:33:36;2.30;;;0.80;;
43620;SDS011;29213;50.770;7.298;2022-09-09T03:36:02;3.47;;;1.10;;
43620;SDS011;29213;50.770;7.298;2022-09-09T03:38:28;3.30;;;1.40;;
43620;SDS011;29213;50.770;7.298;2022-09-09T03:40:55;3.30;;;1.02;;
43620;SDS011;29213;50.770;7.298;2022-09-09T03:43:22;3.83;;;1.20;;
43620;SDS011;29213;50.770;7.298;2022-09-09T03:45:49;2.67;;;1.00;;
43620;SDS011;29213;50.770;7.298;2022-09-09T03:48:15;3.35;;;1.20;;
43620;SDS011;29213;50.770;7.298;2022-09-09T03:50:46;3.92;;;1.15;;
43620;SDS011;29213;50.770;7.298;2022-09-09T03:53:12;3.50;;;1.08;;
43620;SDS011;29213;50.770;7.298;2022-09-09T03:55:37;3.35;;;1.13;;
43620;SDS011;29213;50.770;7.298;2022-09-09T03:58:03;3.35;;;1.10;;
43620;SDS011;29213;50.770;7.298;2022-09-09T04:00:28;2.45;;;1.20;;
43620;SDS011;29213;50.770;7.298;2022-09-09T04:02:55;3.28;;;1.10;;
43620;SDS011;29213;50.770;7.298;2022-09-09T04:05:21;3.22;;;1.10;;
43620;SDS011;29213;50.770;7.298;2022-09-09T04:07:47;2.42;;;1.00;;
43620;SDS011;29213;50.770;7.298;2022-09-09T04:10:12;2.38;;;0.93;;
43620;SDS011;29213;50.770;7.298;2022-09-09T04:12:38;2.80;;;0.90;;
43620;SDS011;29213;50.770;7.298;2022-09-09T04:15:04;3.17;;;0.90;;
43620;SDS011;29213;50.770;7.298;2022-09-09T04:17:30;2.05;;;0.90;;
43620;SDS011;29213;50.770;7.298;2022-09-09T04:19:56;1.70;;;0.70;;
43620;SDS011;29213;50.770;7.298;2022-09-09T04:22:22;3.38;;;0.93;;
43620;SDS011;29213;50.770;7.298;2022-09-09T04:24:47;2.72;;;0.98;;
43620;SDS011;29213;50.770;7.298;2022-09-09T04:27:12;2.28;;;0.90;;
43620;SDS011;29213;50.770;7.298;2022-09-09T04:29:39;2.80;;;0.90;;
43620;SDS011;29213;50.770;7.298;2022-09-09T04:32:04;2.85;;;1.00;;
43620;SDS011;29213;50.770;7.298;2022-09-09T04:34:30;2.92;;;1.00;;
43620;SDS011;29213;50.770;7.298;2022-09-09T04:36:56;4.40;;;1.17;;
43620;SDS011;29213;50.770;7.298;2022-09-09T04:39:24;3.05;;;1.00;;
43620;SDS011;29213;50.770;7.298;2022-09-09T04:41:49;2.08;;;1.00;;
43620;SDS011;29213;50.770;7.298;2022-09-09T04:44:15;4.47;;;1.10;;
43620;SDS011;29213;50.770;7.298;2022-09-09T04:46:40;4.80;;;1.23;;
43620;SDS011;29213;50.770;7.298;2022-09-09T04:49:06;3.03;;;1.10;;
43620;SDS011;29213;50.770;7.298;2022-09-09T04:51:32;2.00;;;0.90;;
43620;SDS011;29213;50.770;7.298;2022-09-09T04:53:57;3.05;;;0.93;;
43620;SDS011;29213;50.770;7.298;2022-09-09T04:56:23;3.05;;;0.93;;
43620;SDS011;29213;50.770;7.298;2022-09-09T04:58:48;6.18;;;1.42;;
43620;SDS011;29213;50.770;7.298;2022-09-09T05:01:15;3.50;;;1.27;;
43620;SDS011;29213;50.770;7.298;2022-09-09T05:03:44;2.63;;;1.00;;
43620;SDS011;29213;50.770;7.298;2022-09-09T05:06:11;2.83;;;1.10;;
43620;SDS011;29213;50.770;7.298;2022-09-09T05:08:43;2.53;;;0.90;;
43620;SDS011;29213;50.770;7.298;2022-09-09T05:11:19;2.55;;;0.90;;
43620;SDS011;29213;50.770;7.298;2022-09-09T05:13:51;3.53;;;0.93;;
43620;SDS011;29213;50.770;7.298;2022-09-09T05:16:17;2.10;;;0.90;;
43620;SDS011;29213;50.770;7.298;2022-09-09T05:18:44;3.22;;;0.90;;
43620;SDS011;29213;50.770;7.298;2022-09-09T05:21:11;2.30;;;0.80;;
43620;SDS011;29213;50.770;7.298;2022-09-09T05:23:37;4.53;;;1.10;;
43620;SDS011;29213;50.770;7.298;2022-09-09T05:26:03;3.50;;;0.90;;
43620;SDS011;29213;50.770;7.298;2022-09-09T05:28:29;2.40;;;0.85;;
43620;SDS011;29213;50.770;7.298;2022-09-09T05:31:02;3.00;;;1.13;;
43620;SDS011;29213;50.770;7.298;2022-09-09T05:33:36;2.50;;;0.90;;
43620;SDS011;29213;50.770;7.298;2022-09-09T05:36:03;3.22;;;1.05;;
43620;SDS011;29213;50.770;7.298;2022-09-09T05:38:34;3.20;;;0.98;;
43620;SDS011;29213;50.770;7.298;2022-09-09T05:43:27;4.45;;;1.20;;
43620;SDS011;29213;50.770;7.298;2022-09-09T05:48:30;4.85;;;1.23;;
43620;SDS011;29213;50.770;7.298;2022-09-09T05:50:57;3.33;;;1.20;;
43620;SDS011;29213;50.770;7.298;2022-09-09T05:53:28;2.47;;;0.90;;
43620;SDS011;29213;50.770;7.298;2022-09-09T05:55:58;2.83;;;1.00;;
43620;SDS011;29213;50.770;7.298;2022-09-09T05:58:24;2.78;;;1.02;;
43620;SDS011;29213;50.770;7.298;2022-09-09T06:00:50;3.80;;;1.20;;
43620;SDS011;29213;50.770;7.298;2022-09-09T06:03:15;3.97;;;1.25;;
43620;SDS011;29213;50.770;7.298;2022-09-09T06:05:42;2.95;;;1.00;;
43620;SDS011;29213;50.770;7.298;2022-09-09T06:08:07;2.13;;;1.00;;
43620;SDS011;29213;50.770;7.298;2022-09-09T06:10:33;3.55;;;1.10;;
43620;SDS011;29213;50.770;7.298;2022-09-09T06:12:59;2.90;;;1.20;;
43620;SDS011;29213;50.770;7.298;2022-09-09T06:15:24;3.30;;;1.20;;
43620;SDS011;29213;50.770;7.298;2022-09-09T06:17:54;2.20;;;1.00;;
43620;SDS011;29213;50.770;7.298;2022-09-09T06:20:20;3.55;;;1.10;;
43620;SDS011;29213;50.770;7.298;2022-09-09T06:22:47;3.17;;;1.08;;
43620;SDS011;29213;50.770;7.298;2022-09-09T06:25:13;3.53;;;1.27;;
43620;SDS011;29213;50.770;7.298;2022-09-09T06:27:39;4.63;;;1.40;;
43620;SDS011;29213;50.770;7.298;2022-09-09T06:30:05;4.53;;;1.30;;
43620;SDS011;29213;50.770;7.298;2022-09-09T06:32:31;4.53;;;1.60;;
43620;SDS011;29213;50.770;7.298;2022-09-09T06:35:00;5.00;;;1.25;;
43620;SDS011;29213;50.770;7.298;2022-09-09T06:37:26;5.35;;;1.27;;
43620;SDS011;29213;50.770;7.298;2022-09-09T06:39:52;3.50;;;1.33;;
43620;SDS011;29213;50.770;7.298;2022-09-09T06:42:19;3.60;;;0.95;;
43620;SDS011;29213;50.770;7.298;2022-09-09T06:44:45;3.72;;;1.30;;
43620;SDS011;29213;50.770;7.298;2022-09-09T06:47:10;3.97;;;1.23;;
43620;SDS011;29213;50.770;7.298;2022-09-09T06:49:39;4.68;;;1.02;;
43620;SDS011;29213;50.770;7.298;2022-09-09T06:52:04;5.32;;;1.23;;
43620;SDS011;29213;50.770;7.298;2022-09-09T06:54:30;5.13;;;1.30;;
43620;SDS011;29213;50.770;7.298;2022-09-09T06:56:55;3.22;;;1.20;;
43620;SDS011;29213;50.770;7.298;2022-09-09T06:59:20;4.82;;;1.13;;
43620;SDS011;29213;50.770;7.298;2022-09-09T07:01:47;3.78;;;1.33;;
43620;SDS011;29213;50.770;7.298;2022-09-09T07:04:13;5.78;;;1.23;;
43620;SDS011;29213;50.770;7.298;2022-09-09T07:06:40;5.20;;;1.55;;
43620;SDS011;29213;50.770;7.298;2022-09-09T07:11:39;7.53;;;1.60;;
43620;SDS011;29213;50.770;7.298;2022-09-09T07:14:07;4.40;;;1.20;;
43620;SDS011;29213;50.770;7.298;2022-09-09T07:16:34;4.25;;;1.10;;
43620;SDS011;29213;50.770;7.298;2022-09-09T07:19:02;3.20;;;1.00;;
43620;SDS011;29213;50.770;7.298;2022-09-09T07:21:28;4.28;;;1.42;;
43620;SDS011;29213;50.770;7.298;2022-09-09T07:23:55;4.07;;;1.20;;
43620;SDS011;29213;50.770;7.298;2022-09-09T07:26:28;4.68;;;1.30;;
43620;SDS011;29213;50.770;7.298;2022-09-09T07:28:55;4.18;;;1.23;;
43620;SDS011;29213;50.770;7.298;2022-09-09T07:31:29;3.17;;;0.90;;
43620;SDS011;29213;50.770;7.298;2022-09-09T07:33:56;3.33;;;1.10;;
43620;SDS011;29213;50.770;7.298;2022-09-09T07:36:24;3.00;;;0.80;;
43620;SDS011;29213;50.770;7.298;2022-09-09T07:38:51;5.63;;;1.25;;
43620;SDS011;29213;50.770;7.298;2022-09-09T07:41:20;3.65;;;1.20;;
43620;SDS011;29213;50.770;7.298;2022-09-09T07:43:55;3.55;;;1.17;;
43620;SDS011;29213;50.770;7.298;2022-09-09T07:46:24;2.83;;;0.90;;
43620;SDS011;29213;50.770;7.298;2022-09-09T07:48:52;5.20;;;0.80;;
43620;SDS011;29213;50.770;7.298;2022-09-09T07:51:40;4.32;;;1.13;;
43620;SDS011;29213;50.770;7.298;2022-09-09T07:54:15;3.47;;;0.98;;
43620;SDS011;29213;50.770;7.298;2022-09-09T07:56:45;6.30;;;1.02;;
43620;SDS011;29213;50.770;7.298;2022-09-09T07:59:16;3.60;;;1.25;;
43620;SDS011;29213;50.770;7.298;2022-09-09T08:01:54;4.72;;;1.10;;
43620;SDS011;29213;50.770;7.298;2022-09-09T08:04:20;4.50;;;1.05;;
43620;SDS011;29213;50.770;7.298;2022-09-09T08:06:48;3.20;;;1.02;;
43620;SDS011;29213;50.770;7.298;2022-09-09T08:09:19;2.42;;;0.90;;
43620;SDS011;29213;50.770;7.298;2022-09-09T08:11:46;4.07;;;1.10;;
43620;SDS011;29213;50.770;7.298;2022-09-09T08:14:12;3.35;;;0.82;;
43620;SDS011;29213;50.770;7.298;2022-09-09T08:16:39;4.03;;;1.20;;
43620;SDS011;29213;50.770;7.298;2022-09-09T08:19:07;3.83;;;1.50;;
43620;SDS011;29213;50.770;7.298;2022-09-09T08:21:32;3.65;;;1.10;;
43620;SDS011;29213;50.770;7.298;2022-09-09T08:23:59;3.47;;;0.90;;
43620;SDS011;29213;50.770;7.298;2022-09-09T08:26:28;4.55;;;1.40;;
43620;SDS011;29213;50.770;7.298;2022-09-09T08:28:55;3.17;;;1.30;;
43620;SDS011;29213;50.770;7.298;2022-09-09T08:31:23;2.85;;;1.00;;
43620;SDS011;29213;50.770;7.298;2022-09-09T08:33:51;4.13;;;1.00;;
43620;SDS011;29213;50.770;7.298;2022-09-09T08:36:18;4.65;;;1.50;;
43620;SDS011;29213;50.770;7.298;2022-09-09T08:38:51;3.95;;;1.10;;
43620;SDS011;29213;50.770;7.298;2022-09-09T08:52:49;4.53;;;1.20;;
43620;SDS011;29213;50.770;7.298;2022-09-09T08:58:02;3.75;;;0.90;;
43620;SDS011;29213;50.770;7.298;2022-09-09T09:03:44;3.42;;;1.00;;
43620;SDS011;29213;50.770;7.298;2022-09-09T09:08:57;2.95;;;1.00;;
43620;SDS011;29213;50.770;7.298;2022-09-09T09:11:33;3.88;;;1.00;;
43620;SDS011;29213;50.770;7.298;2022-09-09T09:14:37;3.80;;;1.40;;
43620;SDS011;29213;50.770;7.298;2022-09-09T09:17:03;4.93;;;1.10;;
43620;SDS011;29213;50.770;7.298;2022-09-09T09:19:32;2.83;;;0.90;;
43620;SDS011;29213;50.770;7.298;2022-09-09T09:24:50;3.70;;;1.17;;
43620;SDS011;29213;50.770;7.298;2022-09-09T09:27:40;1.98;;;0.80;;
43620;SDS011;29213;50.770;7.298;2022-09-09T09:33:22;2.50;;;1.02;;
43620;SDS011;29213;50.770;7.298;2022-09-09T09:35:56;3.22;;;0.90;;
43620;SDS011;29213;50.770;7.298;2022-09-09T09:38:24;2.35;;;0.70;;
43620;SDS011;29213;50.770;7.298;2022-09-09T09:40:56;2.95;;;1.00;;
43620;SDS011;29213;50.770;7.298;2022-09-09T09:43:33;3.65;;;1.15;;
43620;SDS011;29213;50.770;7.298;2022-09-09T09:46:00;3.60;;;1.70;;
43620;SDS011;29213;50.770;7.298;2022-09-09T09:48:28;3.20;;;1.00;;
43620;SDS011;29213;50.770;7.298;2022-09-09T09:53:26;3.42;;;0.90;;
43620;SDS011;29213;50.770;7.298;2022-09-09T09:56:04;5.07;;;1.10;;
43620;SDS011;29213;50.770;7.298;2022-09-09T09:58:52;3.08;;;1.10;;
43620;SDS011;29213;50.770;7.298;2022-09-09T10:01:30;2.28;;;0.65;;
43620;SDS011;29213;50.770;7.298;2022-09-09T10:06:45;4.45;;;1.00;;
43620;SDS011;29213;50.770;7.298;2022-09-09T10:09:31;3.65;;;0.80;;
43620;SDS011;29213;50.770;7.298;2022-09-09T10:14:46;3.33;;;0.90;;
43620;SDS011;29213;50.770;7.298;2022-09-09T10:20:16;2.15;;;0.90;;
43620;SDS011;29213;50.770;7.298;2022-09-09T10:22:52;3.08;;;1.00;;
43620;SDS011;29213;50.770;7.298;2022-09-09T10:34:26;3.20;;;0.88;;
43620;SDS011;29213;50.770;7.298;2022-09-09T10:45:51;3.38;;;1.00;;
43620;SDS011;29213;50.770;7.298;2022-09-09T10:56:03;3.95;;;1.20;;
43620;SDS011;29213;50.770;7.298;2022-09-09T10:58:36;4.15;;;0.95;;
43620;SDS011;29213;50.770;7.298;2022-09-09T11:01:30;3.15;;;1.00;;
43620;SDS011;29213;50.770;7.298;2022-09-09T11:03:57;4.03;;;1.00;;
43620;SDS011;29213;50.770;7.298;2022-09-09T11:06:47;3.28;;;1.00;;
43620;SDS011;29213;50.770;7.298;2022-09-09T11:09:18;4.03;;;1.10;;
43620;SDS011;29213;50.770;7.298;2022-09-09T11:11:55;2.88;;;1.08;;
43620;SDS011;29213;50.770;7.298;2022-09-09T11:16:55;4.78;;;0.88;;
43620;SDS011;29213;50.770;7.298;2022-09-09T11:19:33;3.78;;;1.23;;
43620;SDS011;29213;50.770;7.298;2022-09-09T11:22:16;2.85;;;0.80;;
43620;SDS011;29213;50.770;7.298;2022-09-09T11:25:47;2.33;;;0.70;;
43620;SDS011;29213;50.770;7.298;2022-09-09T11:41:52;2.92;;;0.90;;
43620;SDS011;29213;50.770;7.298;2022-09-09T11:44:25;3.20;;;1.00;;
43620;SDS011;29213;50.770;7.298;2022-09-09T11:46:55;3.13;;;0.98;;
43620;SDS011;29213;50.770;7.298;2022-09-09T11:49:27;1.67;;;0.70;;
43620;SDS011;29213;50.770;7.298;2022-09-09T11:52:35;2.72;;;0.90;;
43620;SDS011;29213;50.770;7.298;2022-09-09T11:55:59;2.85;;;0.90;;
43620;SDS011;29213;50.770;7.298;2022-09-09T11:58:02;4.65;;;0.95;;
43620;SDS011;29213;50.770;7.298;2022-09-09T12:00:34;3.85;;;0.85;;
43620;SDS011;29213;50.770;7.298;2022-09-09T12:03:48;2.55;;;0.70;;
43620;SDS011;29213;50.770;7.298;2022-09-09T12:06:25;2.17;;;0.80;;
43620;SDS011;29213;50.770;7.298;2022-09-09T12:09:58;2.85;;;1.00;;
43620;SDS011;29213;50.770;7.298;2022-09-09T12:14:42;1.95;;;0.70;;
43620;SDS011;29213;50.770;7.298;2022-09-09T12:17:19;2.10;;;0.80;;
43620;SDS011;29213;50.770;7.298;2022-09-09T12:19:48;1.98;;;0.73;;
43620;SDS011;29213;50.770;7.298;2022-09-09T12:22:47;2.08;;;0.65;;
43620;SDS011;29213;50.770;7.298;2022-09-09T12:28:41;3.15;;;0.90;;
43620;SDS011;29213;50.770;7.298;2022-09-09T12:34:16;3.40;;;1.00;;
43620;SDS011;29213;50.770;7.298;2022-09-09T12:37:06;2.10;;;0.60;;
43620;SDS011;29213;50.770;7.298;2022-09-09T12:39:42;2.70;;;0.70;;
43620;SDS011;29213;50.770;7.298;2022-09-09T12:42:17;2.40;;;0.77;;
43620;SDS011;29213;50.770;7.298;2022-09-09T12:44:50;2.20;;;0.73;;
43620;SDS011;29213;50.770;7.298;2022-09-09T12:47:20;3.58;;;0.77;;
43620;SDS011;29213;50.770;7.298;2022-09-09T12:52:47;2.35;;;0.80;;
43620;SDS011;29213;50.770;7.298;2022-09-09T12:55:24;2.45;;;0.70;;
43620;SDS011;29213;50.770;7.298;2022-09-09T12:57:55;2.75;;;0.90;;
43620;SDS011;29213;50.770;7.298;2022-09-09T13:00:23;3.30;;;1.10;;
43620;SDS011;29213;50.770;7.298;2022-09-09T13:02:51;2.70;;;0.95;;
43620;SDS011;29213;50.770;7.298;2022-09-09T13:05:21;3.30;;;1.02;;
43620;SDS011;29213;50.770;7.298;2022-09-09T13:07:59;4.05;;;0.98;;
43620;SDS011;29213;50.770;7.298;2022-09-09T13:10:28;3.05;;;0.70;;
43620;SDS011;29213;50.770;7.298;2022-09-09T13:12:57;3.75;;;0.77;;
43620;SDS011;29213;50.770;7.298;2022-09-09T13:15:24;2.47;;;0.80;;
43620;SDS011;29213;50.770;7.298;2022-09-09T13:17:53;3.28;;;1.00;;
43620;SDS011;29213;50.770;7.298;2022-09-09T13:20:21;2.55;;;0.90;;
43620;SDS011;29213;50.770;7.298;2022-09-09T13:22:48;2.85;;;0.77;;
43620;SDS011;29213;50.770;7.298;2022-09-09T13:25:22;2.83;;;0.75;;
43620;SDS011;29213;50.770;7.298;2022-09-09T13:28:02;2.75;;;0.90;;
43620;SDS011;29213;50.770;7.298;2022-09-09T13:33:20;3.15;;;0.80;;
43620;SDS011;29213;50.770;7.298;2022-09-09T13:35:52;2.25;;;0.75;;
43620;SDS011;29213;50.770;7.298;2022-09-09T13:38:20;2.65;;;0.80;;
43620;SDS011;29213;50.770;7.298;2022-09-09T13:40:56;3.53;;;0.98;;
43620;SDS011;29213;50.770;7.298;2022-09-09T13:43:30;2.85;;;0.90;;
43620;SDS011;29213;50.770;7.298;2022-09-09T13:48:55;2.33;;;0.80;;
43620;SDS011;29213;50.770;7.298;2022-09-09T13:54:13;2.40;;;0.65;;
43620;SDS011;29213;50.770;7.298;2022-09-09T13:56:40;2.60;;;0.90;;
43620;SDS011;29213;50.770;7.298;2022-09-09T13:59:09;2.55;;;0.63;;
43620;SDS011;29213;50.770;7.298;2022-09-09T14:01:36;2.63;;;0.73;;
43620;SDS011;29213;50.770;7.298;2022-09-09T14:04:02;3.67;;;0.95;;
43620;SDS011;29213;50.770;7.298;2022-09-09T14:06:28;2.65;;;0.80;;
43620;SDS011;29213;50.770;7.298;2022-09-09T14:08:54;3.30;;;0.80;;
43620;SDS011;29213;50.770;7.298;2022-09-09T14:11:20;2.55;;;0.70;;
43620;SDS011;29213;50.770;7.298;2022-09-09T14:13:47;2.45;;;0.85;;
43620;SDS011;29213;50.770;7.298;2022-09-09T14:16:15;2.35;;;0.73;;
43620;SDS011;29213;50.770;7.298;2022-09-09T14:18:42;2.65;;;0.80;;
43620;SDS011;29213;50.770;7.298;2022-09-09T14:21:09;2.42;;;0.80;;
43620;SDS011;29213;50.770;7.298;2022-09-09T14:23:38;4.03;;;1.10;;
43620;SDS011;29213;50.770;7.298;2022-09-09T14:28:31;2.65;;;0.80;;
43620;SDS011;29213;50.770;7.298;2022-09-09T14:31:01;1.77;;;0.65;;
43620;SDS011;29213;50.770;7.298;2022-09-09T14:33:28;1.17;;;0.47;;
43620;SDS011;29213;50.770;7.298;2022-09-09T14:35:58;2.17;;;0.60;;
43620;SDS011;29213;50.770;7.298;2022-09-09T14:38:26;1.48;;;0.50;;
43620;SDS011;29213;50.770;7.298;2022-09-09T14:40:54;2.22;;;0.70;;
43620;SDS011;29213;50.770;7.298;2022-09-09T14:43:19;3.22;;;0.65;;
43620;SDS011;29213;50.770;7.298;2022-09-09T14:45:45;2.70;;;0.75;;
43620;SDS011;29213;50.770;7.298;2022-09-09T14:48:13;2.08;;;0.60;;
43620;SDS011;29213;50.770;7.298;2022-09-09T14:50:40;1.70;;;0.50;;
43620;SDS011;29213;50.770;7.298;2022-09-09T14:53:07;1.23;;;0.50;;
43620;SDS011;29213;50.770;7.298;2022-09-09T14:55:34;1.60;;;0.68;;
43620;SDS011;29213;50.770;7.298;2022-09-09T14:57:59;1.83;;;0.57;;
43620;SDS011;29213;50.770;7.298;2022-09-09T15:00:25;1.67;;;0.60;;
43620;SDS011;29213;50.770;7.298;2022-09-09T15:02:54;2.10;;;0.70;;
43620;SDS011;29213;50.770;7.298;2022-09-09T15:05:20;1.10;;;0.50;;
43620;SDS011;29213;50.770;7.298;2022-09-09T15:07:46;2.55;;;0.63;;
43620;SDS011;29213;50.770;7.298;2022-09-09T15:10:13;1.88;;;0.50;;
43620;SDS011;29213;50.770;7.298;2022-09-09T15:12:39;3.05;;;0.80;;
43620;SDS011;29213;50.770;7.298;2022-09-09T15:15:04;2.30;;;0.57;;
43620;SDS011;29213;50.770;7.298;2022-09-09T15:17:30;1.00;;;0.50;;
43620;SDS011;29213;50.770;7.298;2022-09-09T15:19:56;1.80;;;0.60;;
43620;SDS011;29213;50.770;7.298;2022-09-09T15:22:22;2.30;;;0.55;;
43620;SDS011;29213;50.770;7.298;2022-09-09T15:24:49;0.85;;;0.40;;
43620;SDS011;29213;50.770;7.298;2022-09-09T15:27:14;2.40;;;0.85;;
43620;SDS011;29213;50.770;7.298;2022-09-09T15:29:40;1.85;;;0.68;;
43620;SDS011;29213;50.770;7.298;2022-09-09T15:32:06;2.00;;;0.70;;
43620;SDS011;29213;50.770;7.298;2022-09-09T15:34:32;1.92;;;0.70;;
43620;SDS011;29213;50.770;7.298;2022-09-09T15:36:57;1.80;;;0.70;;
43620;SDS011;29213;50.770;7.298;2022-09-09T15:39:25;2.13;;;0.70;;
43620;SDS011;29213;50.770;7.298;2022-09-09T15:41:50;1.70;;;0.50;;
43620;SDS011;29213;50.770;7.298;2022-09-09T15:44:16;1.58;;;0.70;;
43620;SDS011;29213;50.770;7.298;2022-09-09T15:46:50;2.05;;;0.63;;
43620;SDS011;29213;50.770;7.298;2022-09-09T15:49:22;3.22;;;0.80;;
43620;SDS011;29213;50.770;7.298;2022-09-09T15:51:53;1.35;;;0.60;;
43620;SDS011;29213;50.770;7.298;2022-09-09T15:54:22;2.85;;;0.70;;
43620;SDS011;29213;50.770;7.298;2022-09-09T15:56:51;2.95;;;0.70;;
43620;SDS011;29213;50.770;7.298;2022-09-09T15:59:20;3.53;;;0.80;;
43620;SDS011;29213;50.770;7.298;2022-09-09T16:01:46;2.30;;;0.80;;
43620;SDS011;29213;50.770;7.298;2022-09-09T16:04:11;1.58;;;0.60;;
43620;SDS011;29213;50.770;7.298;2022-09-09T16:06:37;1.50;;;0.63;;
43620;SDS011;29213;50.770;7.298;2022-09-09T16:09:03;1.58;;;0.60;;
43620;SDS011;29213;50.770;7.298;2022-09-09T16:11:31;1.55;;;0.65;;
43620;SDS011;29213;50.770;7.298;2022-09-09T16:14:03;2.38;;;0.60;;
43620;SDS011;29213;50.770;7.298;2022-09-09T16:16:29;1.67;;;0.68;;
43620;SDS011;29213;50.770;7.298;2022-09-09T16:18:56;2.05;;;0.70;;
43620;SDS011;29213;50.770;7.298;2022-09-09T16:23:57;2.28;;;0.80;;
43620;SDS011;29213;50.770;7.298;2022-09-09T16:26:31;2.95;;;0.80;;
43620;SDS011;29213;50.770;7.298;2022-09-09T16:28:58;1.38;;;0.57;;
43620;SDS011;29213;50.770;7.298;2022-09-09T16:31:24;1.80;;;0.70;;
43620;SDS011;29213;50.770;7.298;2022-09-09T16:33:51;1.25;;;0.50;;
43620;SDS011;29213;50.770;7.298;2022-09-09T16:36:22;2.08;;;0.70;;
43620;SDS011;29213;50.770;7.298;2022-09-09T16:38:56;1.65;;;0.50;;
43620;SDS011;29213;50.770;7.298;2022-09-09T16:41:23;1.92;;;0.68;;
43620;SDS011;29213;50.770;7.298;2022-09-09T16:43:54;2.88;;;0.60;;
43620;SDS011;29213;50.770;7.298;2022-09-09T16:46:21;3.38;;;0.70;;
43620;SDS011;29213;50.770;7.298;2022-09-09T16:48:47;1.95;;;0.80;;
43620;SDS011;29213;50.770;7.298;2022-09-09T16:51:15;1.58;;;0.52;;
43620;SDS011;29213;50.770;7.298;2022-09-09T16:53:43;1.50;;;0.50;;
43620;SDS011;29213;50.770;7.298;2022-09-09T16:56:13;2.22;;;0.60;;
43620;SDS011;29213;50.770;7.298;2022-09-09T16:58:41;2.28;;;0.65;;
43620;SDS011;29213;50.770;7.298;2022-09-09T17:01:08;1.55;;;0.50;;
43620;SDS011;29213;50.770;7.298;2022-09-09T17:03:35;1.70;;;0.70;;
43620;SDS011;29213;50.770;7.298;2022-09-09T17:06:02;2.50;;;0.70;;
43620;SDS011;29213;50.770;7.298;2022-09-09T17:08:30;2.78;;;0.70;;
43620;SDS011;29213;50.770;7.298;2022-09-09T17:10:56;2.00;;;0.70;;
43620;SDS011;29213;50.770;7.298;2022-09-09T17:13:23;2.20;;;0.75;;
43620;SDS011;29213;50.770;7.298;2022-09-09T17:15:49;1.90;;;0.70;;
43620;SDS011;29213;50.770;7.298;2022-09-09T17:18:15;1.73;;;0.75;;
43620;SDS011;29213;50.770;7.298;2022-09-09T17:20:42;2.22;;;0.70;;
43620;SDS011;29213;50.770;7.298;2022-09-09T17:23:09;2.03;;;0.70;;
43620;SDS011;29213;50.770;7.298;2022-09-09T17:25:35;2.28;;;0.70;;
43620;SDS011;29213;50.770;7.298;2022-09-09T17:28:02;2.63;;;0.80;;
43620;SDS011;29213;50.770;7.298;2022-09-09T17:30:29;2.80;;;0.90;;
43620;SDS011;29213;50.770;7.298;2022-09-09T17:32:56;1.88;;;0.65;;
43620;SDS011;29213;50.770;7.298;2022-09-09T17:35:22;1.95;;;0.80;;
43620;SDS011;29213;50.770;7.298;2022-09-09T17:37:47;2.30;;;0.70;;
43620;SDS011;29213;50.770;7.298;2022-09-09T17:40:13;1.80;;;0.70;;
43620;SDS011;29213;50.770;7.298;2022-09-09T17:42:38;1.17;;;0.50;;
43620;SDS011;29213;50.770;7.298;2022-09-09T17:45:05;2.92;;;0.80;;
43620;SDS011;29213;50.770;7.298;2022-09-09T17:47:31;2.28;;;0.70;;
43620;SDS011;29213;50.770;7.298;2022-09-09T17:49:57;2.35;;;0.60;;
43620;SDS011;29213;50.770;7.298;2022-09-09T17:52:22;2.33;;;0.70;;